Time;durP1;ratioP1;P1;durP2;ratioP2;P2;SDS_P1;SDS_P2;PMS_P1;PMS_P2;Temp;Humidity;BMP_temperature;BMP_pressure;BME280_temperature;BME280_humidity;BME280_pressure;Samples;Min_cycle;Max_cycle;Signal;HPM_P1;HPM_P2
2024/01/12 00:00:44;;;;;;;21.63;14.30;;;;;;;;;;4996530;28;20026;-90
2024/01/12 00:03:09;;;;;;;22.50;14.15;;;;;;;;;;5012731;28;20034;-90
2024/01/12 00:05:35;;;;;;;25.60;15.10;;;;;;;;;;4996721;28;20116;-89
2024/01/12 00:08:00;;;;;;;23.33;14.18;;;;;;;;;;4996293;28;20046;-90
2024/01/12 00:10:27;;;;;;;22.80;13.38;;;;;;;;;;5013045;28;20072;-91
2024/01/12 00:12:52;;;;;;;18.38;10.95;;;;;;;;;;5012825;28;20034;-91
2024/01/12 00:15:17;;;;;;;19.50;11.85;;;;;;;;;;5012275;28;20178;-90
2024/01/12 00:17:43;;;;;;;21.50;12.52;;;;;;;;;;5012569;28;20038;-90
2024/01/12 00:20:09;;;;;;;23.30;12.98;;;;;;;;;;5032708;28;20030;-91
2024/01/12 00:22:34;;;;;;;18.80;12.30;;;;;;;;;;5016032;28;20381;-89
2024/01/12 00:25:00;;;;;;;23.05;13.23;;;;;;;;;;5015986;28;20085;-91
2024/01/12 00:27:26;;;;;;;21.00;12.90;;;;;;;;;;5032648;28;20172;-91
2024/01/12 00:29:51;;;;;;;18.92;12.32;;;;;;;;;;5015914;28;20061;-91
2024/01/12 00:32:17;;;;;;;19.60;12.60;;;;;;;;;;5016174;28;20361;-91
2024/01/12 00:34:42;;;;;;;18.35;10.32;;;;;;;;;;5015891;28;20106;-92
2024/01/12 00:37:08;;;;;;;19.63;11.75;;;;;;;;;;4983687;28;20036;-91
2024/01/12 00:39:35;;;;;;;16.58;11.15;;;;;;;;;;4983279;28;20030;-90
2024/01/12 00:42:00;;;;;;;24.55;12.90;;;;;;;;;;5015945;28;20018;-92
2024/01/12 00:44:26;;;;;;;18.85;11.50;;;;;;;;;;5015702;28;20036;-89
2024/01/12 00:46:51;;;;;;;17.15;10.98;;;;;;;;;;5015790;28;20025;-90
2024/01/12 00:49:19;;;;;;;19.77;12.40;;;;;;;;;;5015364;28;20042;-91
2024/01/12 00:51:45;;;;;;;20.42;12.57;;;;;;;;;;5015821;28;20032;-91
2024/01/12 00:54:10;;;;;;;21.90;12.88;;;;;;;;;;5015532;28;20108;-90
2024/01/12 00:56:36;;;;;;;22.13;12.45;;;;;;;;;;5015653;28;20036;-91
2024/01/12 00:59:02;;;;;;;20.52;12.88;;;;;;;;;;4983229;28;20041;-91
2024/01/12 01:01:27;;;;;;;17.75;11.73;;;;;;;;;;5015625;28;20033;-91
2024/01/12 01:03:54;;;;;;;19.40;12.18;;;;;;;;;;5015068;28;20034;-92
2024/01/12 01:06:19;;;;;;;18.65;12.10;;;;;;;;;;5015559;28;20022;-90
2024/01/12 01:08:45;;;;;;;17.00;11.38;;;;;;;;;;5015364;28;20404;-90
2024/01/12 01:11:11;;;;;;;18.48;12.55;;;;;;;;;;5015447;28;20041;-90
2024/01/12 01:13:36;;;;;;;18.35;11.43;;;;;;;;;;5015388;28;20030;-91
2024/01/12 01:16:03;;;;;;;19.70;11.60;;;;;;;;;;5014843;28;20040;-91
2024/01/12 01:18:30;;;;;;;21.02;11.93;;;;;;;;;;5015099;28;20034;-90
2024/01/12 01:20:56;;;;;;;20.85;12.60;;;;;;;;;;5015154;28;20045;-90
2024/01/12 01:23:22;;;;;;;19.83;11.32;;;;;;;;;;5015197;28;20432;-91
2024/01/12 01:25:47;;;;;;;19.48;12.02;;;;;;;;;;5015191;28;20034;-92
2024/01/12 01:28:13;;;;;;;18.33;11.20;;;;;;;;;;5015005;28;20030;-91
2024/01/12 01:30:38;;;;;;;19.02;11.52;;;;;;;;;;5015090;28;20464;-90
2024/01/12 01:33:04;;;;;;;17.00;11.20;;;;;;;;;;5014558;28;20026;-92
2024/01/12 01:35:29;;;;;;;18.20;11.50;;;;;;;;;;5014375;28;20026;-91
2024/01/12 01:37:54;;;;;;;17.95;11.65;;;;;;;;;;4982094;28;20066;-90
2024/01/12 01:40:20;;;;;;;19.25;11.48;;;;;;;;;;5014836;28;20483;-90
2024/01/12 01:42:46;;;;;;;17.73;11.05;;;;;;;;;;5014569;28;20060;-92
2024/01/12 01:45:11;;;;;;;21.20;11.70;;;;;;;;;;5014684;28;20362;-91
2024/01/12 01:47:36;;;;;;;17.85;10.95;;;;;;;;;;4981774;28;20032;-91
2024/01/12 01:50:02;;;;;;;18.55;11.52;;;;;;;;;;4981746;28;20030;-93
2024/01/12 01:52:27;;;;;;;16.67;10.63;;;;;;;;;;5014700;28;20551;-91
2024/01/12 01:54:53;;;;;;;18.20;11.23;;;;;;;;;;4981911;28;20099;-92
2024/01/12 01:57:20;;;;;;;15.65;10.32;;;;;;;;;;4998152;28;20025;-91
2024/01/12 01:59:46;;;;;;;16.95;10.43;;;;;;;;;;5014309;28;20552;-91
2024/01/12 02:02:11;;;;;;;18.67;10.60;;;;;;;;;;5014877;28;20057;-92
2024/01/12 02:04:37;;;;;;;18.15;9.68;;;;;;;;;;5014200;28;20053;-92
2024/01/12 02:07:03;;;;;;;15.95;10.02;;;;;;;;;;4981743;28;20053;-92
2024/01/12 02:09:33;;;;;;;15.63;9.88;;;;;;;;;;4998173;28;20029;-90
2024/01/12 02:11:59;;;;;;;17.25;10.20;;;;;;;;;;4981734;28;20030;-92
2024/01/12 02:14:24;;;;;;;17.15;10.32;;;;;;;;;;5013833;28;20026;-91
2024/01/12 02:16:51;;;;;;;14.10;9.80;;;;;;;;;;5013992;28;20121;-91
2024/01/12 02:19:16;;;;;;;18.80;10.43;;;;;;;;;;4981658;28;20030;-90
2024/01/12 02:21:42;;;;;;;14.07;9.75;;;;;;;;;;5013993;28;20026;-91
2024/01/12 02:24:07;;;;;;;16.83;10.13;;;;;;;;;;4981204;28;20022;-91
2024/01/12 02:26:33;;;;;;;15.00;9.82;;;;;;;;;;5013912;28;20036;-92
2024/01/12 02:29:00;;;;;;;14.95;9.82;;;;;;;;;;4981488;28;20022;-92
2024/01/12 02:31:26;;;;;;;17.13;9.73;;;;;;;;;;4981349;28;20030;-92
2024/01/12 02:33:51;;;;;;;15.18;9.90;;;;;;;;;;4981601;28;20080;-92
2024/01/12 02:36:17;;;;;;;14.60;9.70;;;;;;;;;;4981548;28;20041;-92
2024/01/12 02:38:49;;;;;;;14.57;10.23;;;;;;;;;;4981749;28;20480;-91
2024/01/12 02:41:15;;;;;;;14.63;10.18;;;;;;;;;;5013649;28;20030;-91
2024/01/12 02:43:41;;;;;;;15.90;10.38;;;;;;;;;;5013783;28;20026;-92
2024/01/12 02:46:06;;;;;;;16.23;10.07;;;;;;;;;;5013484;28;20030;-92
2024/01/12 02:48:31;;;;;;;16.90;10.60;;;;;;;;;;5013650;28;20030;-93
2024/01/12 02:50:57;;;;;;;17.30;10.70;;;;;;;;;;4980683;28;20044;-91
2024/01/12 02:53:22;;;;;;;16.88;10.52;;;;;;;;;;5013610;28;20018;-91
2024/01/12 02:55:48;;;;;;;20.48;13.68;;;;;;;;;;5013521;28;20030;-91
2024/01/12 02:58:13;;;;;;;18.73;11.52;;;;;;;;;;5013490;28;20022;-92
2024/01/12 03:00:39;;;;;;;16.58;11.35;;;;;;;;;;5013445;28;20026;-89
2024/01/12 03:03:04;;;;;;;14.18;9.10;;;;;;;;;;5013660;28;20125;-91
2024/01/12 03:05:29;;;;;;;13.73;10.05;;;;;;;;;;4980771;28;20476;-90
2024/01/12 03:07:55;;;;;;;15.70;9.23;;;;;;;;;;5013245;28;20141;-91
2024/01/12 03:10:20;;;;;;;13.30;9.23;;;;;;;;;;4981109;28;20030;-91
2024/01/12 03:12:46;;;;;;;16.60;9.60;;;;;;;;;;4981143;28;20365;-91
2024/01/12 03:15:11;;;;;;;23.70;14.00;;;;;;;;;;4980899;28;20080;-90
2024/01/12 03:17:37;;;;;;;28.45;15.05;;;;;;;;;;4980806;28;20030;-90
2024/01/12 03:20:05;;;;;;;23.45;13.52;;;;;;;;;;4980654;28;20022;-92
2024/01/12 03:22:30;;;;;;;21.05;12.20;;;;;;;;;;5013342;28;20117;-91
2024/01/12 03:24:55;;;;;;;18.77;11.98;;;;;;;;;;5013192;28;20089;-94
2024/01/12 03:27:21;;;;;;;17.70;11.77;;;;;;;;;;4980705;28;20552;-92
2024/01/12 03:29:46;;;;;;;20.00;12.00;;;;;;;;;;5012541;28;20037;-92
2024/01/12 03:32:11;;;;;;;20.92;12.18;;;;;;;;;;5013256;28;20037;-94
2024/01/12 03:34:37;;;;;;;17.55;10.65;;;;;;;;;;5013062;28;20056;-93
2024/01/12 03:37:02;;;;;;;15.88;10.85;;;;;;;;;;5013381;28;20497;-90
2024/01/12 03:39:28;;;;;;;14.50;9.52;;;;;;;;;;4980462;28;20018;-92
2024/01/12 03:41:53;;;;;;;17.73;11.10;;;;;;;;;;4980538;28;20384;-91
2024/01/12 03:44:19;;;;;;;17.35;10.32;;;;;;;;;;4980067;28;20065;-92
2024/01/12 03:46:44;;;;;;;16.52;10.65;;;;;;;;;;4980482;28;20030;-91
2024/01/12 03:49:09;;;;;;;14.30;9.82;;;;;;;;;;5012836;28;20543;-91
2024/01/12 03:51:35;;;;;;;13.18;9.15;;;;;;;;;;4979926;28;20121;-92
2024/01/12 03:54:00;;;;;;;12.40;8.70;;;;;;;;;;4981691;28;20030;-91
2024/01/12 03:56:25;;;;;;;13.98;9.70;;;;;;;;;;4983976;28;20038;-90
2024/01/12 03:58:51;;;;;;;15.00;9.52;;;;;;;;;;4984328;28;20041;-91
2024/01/12 04:01:17;;;;;;;20.73;13.13;;;;;;;;;;4983915;28;20057;-91
2024/01/12 04:03:42;;;;;;;26.67;16.85;;;;;;;;;;4984311;28;20029;-92
2024/01/12 04:06:08;;;;;;;28.13;16.88;;;;;;;;;;4983812;28;20113;-92
2024/01/12 04:08:34;;;;;;;23.42;14.73;;;;;;;;;;5016640;28;20045;-90
2024/01/12 04:10:59;;;;;;;21.38;13.57;;;;;;;;;;5016234;28;20117;-89
2024/01/12 04:13:24;;;;;;;18.98;12.27;;;;;;;;;;5016024;28;20025;-89
2024/01/12 04:15:50;;;;;;;18.77;12.05;;;;;;;;;;4983486;28;20045;-91
2024/01/12 04:18:15;;;;;;;11.23;7.78;;;;;;;;;;4983258;28;20030;-92
2024/01/12 04:20:40;;;;;;;12.45;7.60;;;;;;;;;;4983422;28;20026;-92
2024/01/12 04:23:06;;;;;;;10.45;5.78;;;;;;;;;;4983337;28;20026;-92
2024/01/12 04:25:31;;;;;;;11.23;6.32;;;;;;;;;;4983109;28;20491;-92
2024/01/12 04:27:57;;;;;;;6.30;5.68;;;;;;;;;;4999920;28;20033;-93
2024/01/12 04:30:22;;;;;;;8.60;5.60;;;;;;;;;;4983218;28;20033;-91
2024/01/12 04:32:48;;;;;;;9.60;5.80;;;;;;;;;;4983868;28;20077;-93
2024/01/12 04:35:13;;;;;;;8.07;5.28;;;;;;;;;;4983757;28;20065;-90
2024/01/12 04:37:39;;;;;;;8.07;5.53;;;;;;;;;;4983351;28;20380;-92
2024/01/12 04:40:04;;;;;;;6.38;4.85;;;;;;;;;;4983680;28;20080;-90
2024/01/12 04:42:29;;;;;;;8.05;5.57;;;;;;;;;;4982788;28;20032;-91
2024/01/12 04:44:55;;;;;;;9.55;5.25;;;;;;;;;;4983928;28;20045;-93
2024/01/12 04:47:41;;;;;;;6.80;5.00;;;;;;;;;;4983168;28;20034;-92
2024/01/12 05:15:15;;;;;;;;;;;;;;;;;;5012814;28;20030;-92
2024/01/12 05:18:13;;;;;;;45.00;27.73;;;;;;;;;;4963744;28;19914;-93
2024/01/12 05:20:39;;;;;;;32.45;21.83;;;;;;;;;;4963435;28;20038;-89
2024/01/12 05:23:05;;;;;;;23.52;14.40;;;;;;;;;;4963248;28;20023;-89
2024/01/12 05:25:30;;;;;;;27.15;16.75;;;;;;;;;;4963020;28;20049;-88
2024/01/12 05:27:55;;;;;;;413.25;192.52;;;;;;;;;;4962979;28;20385;-91
2024/01/12 05:30:21;;;;;;;181.45;81.20;;;;;;;;;;4963228;28;20026;-89
2024/01/12 05:32:46;;;;;;;110.95;52.60;;;;;;;;;;4962692;28;20059;-90
2024/01/12 05:35:12;;;;;;;43.78;21.58;;;;;;;;;;4962999;28;20035;-90
2024/01/12 05:37:37;;;;;;;106.40;34.40;;;;;;;;;;4962971;28;20022;-91
2024/01/12 05:40:04;;;;;;;22.98;8.40;;;;;;;;;;4963246;28;20532;-93
2024/01/12 05:42:29;;;;;;;389.92;94.30;;;;;;;;;;4963248;28;20026;-91
2024/01/12 05:44:55;;;;;;;30.63;11.70;;;;;;;;;;4962888;28;20027;-93
2024/01/12 05:47:20;;;;;;;5.18;3.45;;;;;;;;;;4962810;28;20397;-90
2024/01/12 05:49:46;;;;;;;85.10;25.10;;;;;;;;;;4962651;28;20030;-90
2024/01/12 05:52:11;;;;;;;252.63;63.15;;;;;;;;;;4962312;28;20030;-91
2024/01/12 05:54:37;;;;;;;197.63;53.78;;;;;;;;;;4962245;28;20489;-89
2024/01/12 05:57:02;;;;;;;208.57;55.10;;;;;;;;;;4962388;28;20440;-89
2024/01/12 05:59:27;;;;;;;25.20;8.82;;;;;;;;;;4962926;28;20118;-90
2024/01/12 06:01:54;;;;;;;8.63;5.05;;;;;;;;;;4962764;28;20121;-90
2024/01/12 06:04:19;;;;;;;124.65;48.63;;;;;;;;;;4995098;28;20023;-91
2024/01/12 06:06:46;;;;;;;23.88;17.15;;;;;;;;;;4962590;28;20023;-92
2024/01/12 06:09:11;;;;;;;13.43;11.77;;;;;;;;;;4962593;28;20026;-91
2024/01/12 06:11:40;;;;;;;9.77;6.43;;;;;;;;;;4981962;28;20053;-90
2024/01/12 06:14:06;;;;;;;19.42;11.73;;;;;;;;;;4998020;28;20033;-91
2024/01/12 06:16:31;;;;;;;20.42;11.70;;;;;;;;;;4980845;28;20038;-93
2024/01/12 06:18:56;;;;;;;9.93;6.70;;;;;;;;;;4981502;28;20026;-94
2024/01/12 06:21:22;;;;;;;10.73;5.47;;;;;;;;;;4979919;28;20506;-95
2024/01/12 06:23:47;;;;;;;5.78;4.47;;;;;;;;;;4979214;28;20599;-94
2024/01/12 06:26:14;;;;;;;22.48;11.95;;;;;;;;;;4994950;28;20443;-94
2024/01/12 06:28:39;;;;;;;6.93;4.40;;;;;;;;;;4978380;28;20024;-93
2024/01/12 06:31:04;;;;;;;9.10;5.03;;;;;;;;;;4978276;28;20124;-94
2024/01/12 06:33:31;;;;;;;10.00;6.80;;;;;;;;;;4979396;28;20387;-93
2024/01/12 06:35:56;;;;;;;10.40;6.35;;;;;;;;;;4997392;28;20030;-93
2024/01/12 06:38:22;;;;;;;11.10;6.55;;;;;;;;;;4981712;28;20040;-92
2024/01/12 06:40:47;;;;;;;7.30;4.57;;;;;;;;;;4981273;28;20080;-93
2024/01/12 06:43:13;;;;;;;3.75;3.20;;;;;;;;;;4981399;28;20033;-92
2024/01/12 06:45:38;;;;;;;3.60;3.17;;;;;;;;;;4997516;28;20030;-92
2024/01/12 06:48:04;;;;;;;5.30;4.18;;;;;;;;;;4997571;28;20033;-94
2024/01/12 06:50:29;;;;;;;37.30;19.17;;;;;;;;;;4997459;28;20416;-95
2024/01/12 06:52:56;;;;;;;24.30;13.32;;;;;;;;;;4981223;28;20010;-93
2024/01/12 06:55:21;;;;;;;7.95;4.50;;;;;;;;;;4980783;28;20480;-94
2024/01/12 06:57:46;;;;;;;6.00;3.65;;;;;;;;;;4980789;28;20030;-93
2024/01/12 07:00:12;;;;;;;7.18;4.10;;;;;;;;;;4997396;28;20480;-93
2024/01/12 07:02:38;;;;;;;9.60;5.28;;;;;;;;;;4997306;28;20432;-94
2024/01/12 07:05:03;;;;;;;24.30;8.40;;;;;;;;;;4980886;28;20037;-92
2024/01/12 07:07:29;;;;;;;11.20;6.32;;;;;;;;;;4980840;28;20061;-93
2024/01/12 07:09:54;;;;;;;7.15;4.70;;;;;;;;;;4974692;28;20061;-92
2024/01/12 07:12:20;;;;;;;5.75;3.88;;;;;;;;;;4961906;28;20050;-93
2024/01/12 07:14:45;;;;;;;8.60;5.28;;;;;;;;;;4961634;28;20031;-93
2024/01/12 07:17:11;;;;;;;20.17;11.50;;;;;;;;;;4961627;28;20031;-92
2024/01/12 07:19:36;;;;;;;9.50;7.25;;;;;;;;;;4961320;28;20076;-92
2024/01/12 07:22:02;;;;;;;8.38;5.60;;;;;;;;;;4961591;28;20030;-94
2024/01/12 07:24:27;;;;;;;7.07;4.85;;;;;;;;;;4961609;28;20041;-95
2024/01/12 07:26:53;;;;;;;8.40;4.93;;;;;;;;;;4963190;28;20033;-94
2024/01/12 07:29:22;;;;;;;8.93;5.28;;;;;;;;;;4966373;28;20041;-96
2024/01/12 07:31:50;;;;;;;8.90;4.70;;;;;;;;;;4966658;28;20034;-96
2024/01/12 07:34:17;;;;;;;8.68;5.00;;;;;;;;;;4964724;28;20073;-96
2024/01/12 07:36:43;;;;;;;8.40;4.60;;;;;;;;;;4998556;28;20034;-95
2024/01/12 07:39:08;;;;;;;9.75;5.22;;;;;;;;;;4965892;28;20480;-95
2024/01/12 07:41:34;;;;;;;7.97;5.20;;;;;;;;;;4965151;28;20469;-93
2024/01/12 07:43:59;;;;;;;7.70;5.20;;;;;;;;;;4965365;28;20084;-93
2024/01/12 07:46:25;;;;;;;10.88;5.53;;;;;;;;;;4965023;28;20080;-93
2024/01/12 07:48:51;;;;;;;6.72;4.85;;;;;;;;;;4965046;28;20076;-92
2024/01/12 07:51:17;;;;;;;8.52;5.18;;;;;;;;;;4965200;28;20077;-93
2024/01/12 07:53:42;;;;;;;8.80;5.28;;;;;;;;;;4964941;28;20456;-92
2024/01/12 07:56:08;;;;;;;8.80;5.63;;;;;;;;;;4965080;28;20068;-94
2024/01/12 07:58:33;;;;;;;11.93;6.30;;;;;;;;;;4965305;28;20129;-95
2024/01/12 08:00:59;;;;;;;10.52;6.55;;;;;;;;;;4967825;28;20381;-95
2024/01/12 08:03:24;;;;;;;11.73;6.20;;;;;;;;;;4967911;28;20038;-95
2024/01/12 08:05:50;;;;;;;10.48;6.28;;;;;;;;;;4969870;28;20093;-96
2024/01/12 08:08:35;;;;;;;10.15;6.32;;;;;;;;;;5003017;28;20042;-95
2024/01/12 08:11:00;;;;;;;13.02;6.80;;;;;;;;;;4984696;28;20473;-95
2024/01/12 08:13:27;;;;;;;12.70;6.97;;;;;;;;;;5039752;28;20038;-95
2024/01/12 08:16:05;;;;;;;9.18;6.25;;;;;;;;;;4989864;28;20129;-96
2024/01/12 08:19:00;;;;;;;9.82;6.20;;;;;;;;;;4989979;28;20120;-96
2024/01/12 08:21:26;;;;;;;11.60;7.03;;;;;;;;;;5021248;28;20029;-96
2024/01/12 08:23:54;;;;;;;12.18;6.70;;;;;;;;;;4987689;28;20046;-96
2024/01/12 08:26:19;;;;;;;12.15;7.15;;;;;;;;;;4987428;28;20076;-95
2024/01/12 08:28:46;;;;;;;10.93;6.45;;;;;;;;;;5004022;28;20435;-96
2024/01/12 08:31:11;;;;;;;13.60;7.07;;;;;;;;;;5003785;28;20026;-95
2024/01/12 08:33:48;;;;;;;13.60;6.80;;;;;;;;;;4986100;28;20041;-95
2024/01/12 08:36:13;;;;;;;10.50;6.20;;;;;;;;;;4986182;28;20065;-96
2024/01/12 08:38:40;;;;;;;13.13;6.53;;;;;;;;;;5018266;28;20045;-96
2024/01/12 08:41:05;;;;;;;9.13;6.18;;;;;;;;;;4985752;28;20018;-96
2024/01/12 08:43:32;;;;;;;9.15;5.25;;;;;;;;;;4985027;28;20037;-96
2024/01/12 08:45:58;;;;;;;9.43;5.85;;;;;;;;;;5001633;28;20030;-96
2024/01/12 08:48:23;;;;;;;7.53;4.95;;;;;;;;;;4984391;28;20468;-96
2024/01/12 08:50:48;;;;;;;10.57;5.97;;;;;;;;;;4983858;28;20033;-95
2024/01/12 08:53:14;;;;;;;12.70;9.50;;;;;;;;;;4985565;28;20040;-95
2024/01/12 08:55:39;;;;;;;13.88;9.75;;;;;;;;;;4985619;28;20048;-95
2024/01/12 08:58:05;;;;;;;9.70;6.00;;;;;;;;;;4985752;28;20034;-95
2024/01/12 09:00:30;;;;;;;10.20;5.60;;;;;;;;;;4985775;28;20476;-96
2024/01/12 09:02:58;;;;;;;8.85;5.03;;;;;;;;;;4985955;28;20041;-95
2024/01/12 09:05:24;;;;;;;5.38;3.70;;;;;;;;;;4985142;28;20377;-94
2024/01/12 09:07:54;;;;;;;9.30;5.38;;;;;;;;;;4984574;28;20060;-95
2024/01/12 09:13:17;;;;;;;6.63;4.65;;;;;;;;;;5015399;28;19936;-95
2024/01/12 09:15:43;;;;;;;12.35;5.55;;;;;;;;;;4982339;28;20038;-96
2024/01/12 09:18:08;;;;;;;39.85;18.73;;;;;;;;;;4964961;28;20065;-96
2024/01/12 09:20:34;;;;;;;7.70;4.85;;;;;;;;;;4980316;28;20061;-95
2024/01/12 09:22:59;;;;;;;14.13;8.20;;;;;;;;;;4964024;28;20019;-96
2024/01/12 09:25:34;;;;;;;13.07;7.53;;;;;;;;;;4996802;28;20041;-96
2024/01/12 09:31:03;;;;;;;6.85;5.25;;;;;;;;;;5013475;28;20070;-96
2024/01/12 09:33:29;;;;;;;6.68;4.18;;;;;;;;;;4979473;28;20022;-95
2024/01/12 09:35:54;;;;;;;10.07;5.85;;;;;;;;;;4979698;28;20022;-95
2024/01/12 09:38:20;;;;;;;6.15;4.47;;;;;;;;;;4963387;28;20121;-94
2024/01/12 09:40:51;;;;;;;9.80;6.40;;;;;;;;;;4963108;28;20038;-95
2024/01/12 09:43:22;;;;;;;12.15;7.05;;;;;;;;;;4963829;28;20035;-96
2024/01/12 09:45:50;;;;;;;8.65;5.25;;;;;;;;;;4979191;28;20069;-93
2024/01/12 09:48:16;;;;;;;5.95;4.30;;;;;;;;;;4979107;28;20054;-93
2024/01/12 09:50:42;;;;;;;7.00;4.45;;;;;;;;;;4962848;28;20070;-93
2024/01/12 09:53:08;;;;;;;5.35;3.90;;;;;;;;;;4962692;28;20053;-94
2024/01/12 09:55:33;;;;;;;9.32;4.70;;;;;;;;;;4979095;28;20033;-93
2024/01/12 09:58:00;;;;;;;5.13;4.20;;;;;;;;;;4962891;28;20451;-93
2024/01/12 10:00:26;;;;;;;8.57;5.88;;;;;;;;;;4979213;28;20014;-93
2024/01/12 10:02:55;;;;;;;9.75;6.40;;;;;;;;;;4978802;28;20380;-92
2024/01/12 10:05:21;;;;;;;10.63;6.13;;;;;;;;;;4978795;28;20440;-93
2024/01/12 10:07:47;;;;;;;11.57;7.70;;;;;;;;;;4962508;28;20026;-94
2024/01/12 10:10:12;;;;;;;5.28;3.90;;;;;;;;;;4962729;28;20465;-94
2024/01/12 10:12:37;;;;;;;6.93;4.57;;;;;;;;;;4978474;28;20141;-93
2024/01/12 10:15:04;;;;;;;7.03;5.05;;;;;;;;;;4962633;28;20057;-94
2024/01/12 10:17:30;;;;;;;10.77;5.75;;;;;;;;;;4994726;28;20029;-94
2024/01/12 10:19:56;;;;;;;8.45;5.15;;;;;;;;;;4994797;28;20034;-95
2024/01/12 10:22:21;;;;;;;9.10;5.78;;;;;;;;;;4994487;28;20120;-93
2024/01/12 10:24:55;;;;;;;6.65;4.97;;;;;;;;;;4995199;28;20114;-93
2024/01/12 10:27:20;;;;;;;7.35;4.57;;;;;;;;;;4962427;28;20539;-92
2024/01/12 10:29:46;;;;;;;9.27;6.22;;;;;;;;;;4994771;28;20023;-94
2024/01/12 10:32:11;;;;;;;11.65;6.32;;;;;;;;;;4994797;28;20576;-92
2024/01/12 10:34:39;;;;;;;9.52;6.13;;;;;;;;;;4962152;28;20033;-92
2024/01/12 10:37:06;;;;;;;9.48;6.57;;;;;;;;;;4994359;28;20058;-93
2024/01/12 10:39:34;;;;;;;9.82;6.43;;;;;;;;;;4962173;28;20026;-93
2024/01/12 10:42:01;;;;;;;6.85;4.85;;;;;;;;;;4962172;28;20522;-93
2024/01/12 10:44:27;;;;;;;6.78;3.83;;;;;;;;;;4994442;28;20473;-92
2024/01/12 10:46:56;;;;;;;8.93;5.53;;;;;;;;;;4994343;28;20041;-95
2024/01/12 10:49:25;;;;;;;8.52;5.00;;;;;;;;;;4961666;28;20018;-93
2024/01/12 10:52:03;;;;;;;5.60;4.40;;;;;;;;;;4994541;28;20034;-92
2024/01/12 10:54:34;;;;;;;5.65;4.47;;;;;;;;;;5010631;28;20030;-94
2024/01/12 10:57:00;;;;;;;9.05;5.00;;;;;;;;;;4961693;28;20026;-94
2024/01/12 10:59:27;;;;;;;9.35;5.78;;;;;;;;;;4995031;28;20113;-92
2024/01/12 11:01:53;;;;;;;8.43;4.00;;;;;;;;;;4961491;28;20533;-93
2024/01/12 11:04:19;;;;;;;8.90;4.55;;;;;;;;;;4994523;28;20029;-93
2024/01/12 11:06:45;;;;;;;6.78;4.65;;;;;;;;;;4994073;28;20124;-94
2024/01/12 11:09:12;;;;;;;9.25;5.28;;;;;;;;;;4961694;28;20081;-92
2024/01/12 11:11:43;;;;;;;5.88;4.70;;;;;;;;;;5000303;28;20520;-93
2024/01/12 11:14:10;;;;;;;11.85;6.22;;;;;;;;;;4980569;28;20060;-93
2024/01/12 11:16:35;;;;;;;6.78;4.53;;;;;;;;;;4996805;28;20046;-93
2024/01/12 11:19:00;;;;;;;4.93;3.47;;;;;;;;;;4980662;28;20382;-93
2024/01/12 11:21:26;;;;;;;6.78;3.92;;;;;;;;;;4980955;28;20030;-93
2024/01/12 11:23:53;;;;;;;6.05;4.18;;;;;;;;;;5013684;28;20481;-93
2024/01/12 11:26:19;;;;;;;4.28;3.83;;;;;;;;;;4980940;28;20029;-92
2024/01/12 11:28:45;;;;;;;6.13;4.18;;;;;;;;;;4981250;28;20022;-93
2024/01/12 11:31:10;;;;;;;5.50;4.30;;;;;;;;;;4981583;28;20499;-93
2024/01/12 11:33:41;;;;;;;5.63;4.38;;;;;;;;;;4981051;28;20517;-93
2024/01/12 11:36:12;;;;;;;7.93;4.40;;;;;;;;;;4997079;28;20051;-93
2024/01/12 11:38:37;;;;;;;;;;;;;;;;;;4981218;28;20042;-93
2024/01/12 11:41:08;;;;;;;8.85;4.38;;;;;;;;;;4997195;28;19909;-93
2024/01/12 11:43:47;;;;;;;5.82;4.13;;;;;;;;;;4980531;28;20034;-91
2024/01/12 11:46:12;;;;;;;7.22;4.55;;;;;;;;;;4981443;28;20076;-93
2024/01/12 11:48:38;;;;;;;7.20;3.83;;;;;;;;;;4980385;28;20057;-92
2024/01/12 11:51:03;;;;;;;4.13;3.50;;;;;;;;;;4980580;28;20026;-93
2024/01/12 11:53:31;;;;;;;6.63;3.78;;;;;;;;;;4980777;28;20026;-93
2024/01/12 11:55:56;;;;;;;4.88;3.97;;;;;;;;;;4981057;28;20026;-93
2024/01/12 11:58:22;;;;;;;4.32;3.30;;;;;;;;;;4980850;28;20033;-93
2024/01/12 12:00:48;;;;;;;4.97;3.33;;;;;;;;;;4988320;28;20118;-93
2024/01/12 12:03:13;;;;;;;4.68;3.40;;;;;;;;;;4980545;28;20065;-93
2024/01/12 12:05:39;;;;;;;5.10;3.55;;;;;;;;;;4980515;28;20080;-93
2024/01/12 12:08:05;;;;;;;5.88;3.45;;;;;;;;;;4981208;28;20091;-92
2024/01/12 12:10:30;;;;;;;5.82;3.90;;;;;;;;;;4980428;28;20498;-92
2024/01/12 12:12:55;;;;;;;6.40;3.53;;;;;;;;;;4979874;28;20477;-93
2024/01/12 12:15:21;;;;;;;4.60;3.38;;;;;;;;;;4982750;28;20080;-92
2024/01/12 12:17:47;;;;;;;5.90;3.50;;;;;;;;;;4984057;28;20042;-93
2024/01/12 12:20:13;;;;;;;6.57;3.83;;;;;;;;;;4983823;28;20030;-93
2024/01/12 12:22:39;;;;;;;4.50;3.85;;;;;;;;;;4983867;28;20542;-94
2024/01/12 12:25:09;;;;;;;7.07;4.13;;;;;;;;;;4984394;28;20164;-92
2024/01/12 12:27:35;;;;;;;4.93;3.75;;;;;;;;;;4981540;28;20033;-92
2024/01/12 12:30:01;;;;;;;5.28;3.78;;;;;;;;;;4983982;28;20080;-92
2024/01/12 12:32:26;;;;;;;5.75;4.05;;;;;;;;;;4983988;28;20424;-93
2024/01/12 12:34:52;;;;;;;5.57;3.67;;;;;;;;;;4983797;28;20399;-93
2024/01/12 12:37:17;;;;;;;7.15;4.43;;;;;;;;;;4983327;28;20034;-93
2024/01/12 12:39:43;;;;;;;5.03;3.83;;;;;;;;;;4983719;28;20382;-92
2024/01/12 12:42:08;;;;;;;7.43;4.10;;;;;;;;;;4983357;28;20064;-91
2024/01/12 12:44:37;;;;;;;7.43;4.30;;;;;;;;;;4999744;28;20125;-93
2024/01/12 12:47:05;;;;;;;10.55;4.55;;;;;;;;;;4999812;28;20492;-92
2024/01/12 12:49:32;;;;;;;8.32;3.80;;;;;;;;;;4983481;28;20030;-92
2024/01/12 12:51:58;;;;;;;8.43;3.72;;;;;;;;;;4983650;28;20057;-93
2024/01/12 12:54:23;;;;;;;6.70;3.72;;;;;;;;;;4983135;28;20148;-94
2024/01/12 12:56:49;;;;;;;5.22;3.75;;;;;;;;;;4983627;28;20576;-95
2024/01/12 12:59:14;;;;;;;7.80;4.38;;;;;;;;;;4983673;28;20038;-92
2024/01/12 13:01:40;;;;;;;10.02;5.38;;;;;;;;;;4983443;28;20036;-93
2024/01/12 13:04:05;;;;;;;8.63;5.45;;;;;;;;;;4982868;28;20049;-93
2024/01/12 13:06:32;;;;;;;9.50;4.60;;;;;;;;;;4983210;28;20034;-92
2024/01/12 13:08:58;;;;;;;6.03;4.43;;;;;;;;;;4983171;28;20038;-94
2024/01/12 13:11:23;;;;;;;6.38;4.18;;;;;;;;;;4982507;28;20068;-93
2024/01/12 13:13:48;;;;;;;7.05;4.45;;;;;;;;;;5031740;28;20018;-91
2024/01/12 13:16:14;;;;;;;7.30;5.00;;;;;;;;;;4982435;28;20030;-92
2024/01/12 13:18:39;;;;;;;5.63;3.97;;;;;;;;;;4982671;28;20096;-91
2024/01/12 13:28:21;;;;;;;6.68;4.53;;;;;;;;;;5016348;28;20032;-90
2024/01/12 13:30:47;;;;;;;7.07;4.35;;;;;;;;;;4982784;28;20404;-91
2024/01/12 13:33:14;;;;;;;12.90;5.53;;;;;;;;;;5002369;28;20167;-89
2024/01/12 13:35:40;;;;;;;9.70;5.85;;;;;;;;;;5001970;28;20523;-90
2024/01/12 13:38:05;;;;;;;7.43;4.78;;;;;;;;;;5001838;28;20025;-90
2024/01/12 13:40:31;;;;;;;7.25;4.88;;;;;;;;;;5017846;28;20037;-90
2024/01/12 13:42:56;;;;;;;11.82;5.53;;;;;;;;;;5017645;28;20032;-89
2024/01/12 13:45:21;;;;;;;6.88;4.40;;;;;;;;;;5001487;28;20025;-90
2024/01/12 13:47:47;;;;;;;7.80;4.43;;;;;;;;;;5001565;28;20479;-89
2024/01/12 13:50:12;;;;;;;6.07;3.95;;;;;;;;;;5001477;28;20025;-88
2024/01/12 13:52:38;;;;;;;8.20;4.60;;;;;;;;;;5001105;28;20030;-90
2024/01/12 13:55:03;;;;;;;7.45;4.60;;;;;;;;;;5001266;28;20117;-90
2024/01/12 13:57:29;;;;;;;7.43;5.05;;;;;;;;;;5001618;28;20037;-89
2024/01/12 13:59:54;;;;;;;6.25;4.95;;;;;;;;;;5018001;28;20063;-89
2024/01/12 14:02:20;;;;;;;9.05;5.35;;;;;;;;;;5001450;28;20091;-88
2024/01/12 14:04:46;;;;;;;10.98;6.25;;;;;;;;;;5001250;28;20052;-87
2024/01/12 14:07:11;;;;;;;9.68;5.90;;;;;;;;;;5000908;28;20411;-88
2024/01/12 14:09:37;;;;;;;13.98;8.27;;;;;;;;;;5016307;28;20048;-88
2024/01/12 14:12:02;;;;;;;16.00;8.63;;;;;;;;;;4998769;28;20049;-88
2024/01/12 14:14:28;;;;;;;11.35;6.65;;;;;;;;;;4998706;28;20056;-88
2024/01/12 14:16:53;;;;;;;9.98;6.07;;;;;;;;;;4998615;28;20091;-89
2024/01/12 14:19:19;;;;;;;13.07;7.30;;;;;;;;;;4998693;28;20025;-88
2024/01/12 14:21:45;;;;;;;9.70;6.20;;;;;;;;;;5015121;28;20029;-89
2024/01/12 14:24:10;;;;;;;12.60;6.63;;;;;;;;;;4998507;28;20028;-88
2024/01/12 14:26:35;;;;;;;10.25;5.82;;;;;;;;;;5000145;28;20033;-88
2024/01/12 14:29:01;;;;;;;10.07;5.95;;;;;;;;;;5000488;28;20051;-87
2024/01/12 14:31:27;;;;;;;13.02;7.35;;;;;;;;;;5016615;28;20079;-90
2024/01/12 14:33:52;;;;;;;16.23;8.30;;;;;;;;;;5000585;28;20079;-88
2024/01/12 14:36:17;;;;;;;11.77;6.68;;;;;;;;;;4999770;28;20047;-90
2024/01/12 14:38:43;;;;;;;16.15;8.40;;;;;;;;;;5016173;28;20120;-91
2024/01/12 14:41:08;;;;;;;13.35;7.78;;;;;;;;;;5000087;28;20025;-93
2024/01/12 14:43:34;;;;;;;16.55;8.25;;;;;;;;;;5000425;28;20056;-92
2024/01/12 14:45:59;;;;;;;14.98;7.22;;;;;;;;;;5000054;28;20465;-90
2024/01/12 14:48:25;;;;;;;12.05;6.28;;;;;;;;;;5016488;28;20124;-91
2024/01/12 14:50:51;;;;;;;10.73;4.88;;;;;;;;;;5000739;28;20457;-90
2024/01/12 14:53:20;;;;;;;9.60;5.20;;;;;;;;;;5000416;28;20038;-91
2024/01/12 14:55:46;;;;;;;6.97;3.60;;;;;;;;;;5017605;28;20029;-93
2024/01/12 14:58:11;;;;;;;6.45;3.90;;;;;;;;;;5017195;28;20037;-91
2024/01/12 15:00:37;;;;;;;6.80;3.70;;;;;;;;;;5001171;28;20049;-90
2024/01/12 15:03:03;;;;;;;6.47;4.10;;;;;;;;;;5000509;28;20029;-91